MTN8401 KPVD-KMVY
Flight info
| Callsign | MTN8401 |
|---|---|
| Flight time | 0h 18m |
| Altitude | 4500 |
| Route | / |
| Aircraft | C208/L-SDFGR/C |
Departure
| Time | 2026-04-24 19:41 |
|---|---|
| Airport | Rhode Island T. F. Green International Airport (KPVD) |
Arrival
| Time | 2026-04-24 19:59 |
|---|---|
| Airport | Martha's Vineyard Airport (KMVY) |
| Time | Latitude | Longitude | Altitude | Speed | Heading |
|---|---|---|---|---|---|
| 2026-04-24 19:29 | 41.73108 | -71.42662 | 58 ft | 0 kts | 232° |
| 2026-04-24 19:34 | 41.73107 | -71.42664 | 58 ft | 2 kts | 233° |
| 2026-04-24 19:34 | 41.73134 | -71.42690 | 58 ft | 10 kts | 353° |
| 2026-04-24 19:35 | 41.73166 | -71.42735 | 55 ft | 12 kts | 226° |
| 2026-04-24 19:35 | 41.73067 | -71.42739 | 53 ft | 15 kts | 166° |
| 2026-04-24 19:35 | 41.72964 | -71.42705 | 55 ft | 16 kts | 167° |
| 2026-04-24 19:35 | 41.72858 | -71.42673 | 53 ft | 15 kts | 166° |
| 2026-04-24 19:36 | 41.72762 | -71.42603 | 52 ft | 17 kts | 140° |
| 2026-04-24 19:36 | 41.72663 | -71.42499 | 49 ft | 18 kts | 142° |
| 2026-04-24 19:36 | 41.72567 | -71.42396 | 51 ft | 16 kts | 142° |
| 2026-04-24 19:36 | 41.72474 | -71.42297 | 52 ft | 18 kts | 140° |
| 2026-04-24 19:37 | 41.72388 | -71.42233 | 52 ft | 11 kts | 199° |
| 2026-04-24 19:37 | 41.72356 | -71.42280 | 52 ft | 0 kts | 232° |
| 2026-04-24 19:38 | 41.72342 | -71.42305 | 52 ft | 7 kts | 231° |
| 2026-04-24 19:38 | 41.72337 | -71.42342 | 53 ft | 0 kts | 321° |
| 2026-04-24 19:39 | 41.72347 | -71.42352 | 52 ft | 11 kts | 322° |
| 2026-04-24 19:39 | 41.72561 | -71.42575 | 49 ft | 66 kts | 322° |
| 2026-04-24 19:40 | 41.73008 | -71.43066 | 113 ft | 95 kts | 325° |
| 2026-04-24 19:40 | 41.73573 | -71.43373 | 429 ft | 93 kts | 18° |
| 2026-04-24 19:40 | 41.73912 | -71.42581 | 548 ft | 117 kts | 85° |
| 2026-04-24 19:40 | 41.73910 | -71.41416 | 632 ft | 130 kts | 86° |
| 2026-04-24 19:41 | 41.73613 | -71.40219 | 694 ft | 148 kts | 123° |
| 2026-04-24 19:41 | 41.72828 | -71.39225 | 665 ft | 159 kts | 134° |
| 2026-04-24 19:41 | 41.72015 | -71.38226 | 701 ft | 161 kts | 133° |
| 2026-04-24 19:41 | 41.71214 | -71.37174 | 714 ft | 162 kts | 136° |
| 2026-04-24 19:42 | 41.70293 | -71.36238 | 569 ft | 169 kts | 145° |
| 2026-04-24 19:42 | 41.69598 | -71.35694 | 424 ft | 173 kts | 148° |
| 2026-04-24 19:42 | 41.68557 | -71.34863 | 299 ft | 173 kts | 140° |
| 2026-04-24 19:42 | 41.67737 | -71.33830 | 493 ft | 157 kts | 129° |
| 2026-04-24 19:43 | 41.67039 | -71.32722 | 552 ft | 155 kts | 121° |
| 2026-04-24 19:43 | 41.66359 | -71.31604 | 632 ft | 152 kts | 130° |
| 2026-04-24 19:43 | 41.65760 | -71.30474 | 755 ft | 147 kts | 126° |
| 2026-04-24 19:43 | 41.65204 | -71.29365 | 875 ft | 141 kts | 125° |
| 2026-04-24 19:44 | 41.64631 | -71.28305 | 1005 ft | 142 kts | 126° |
| 2026-04-24 19:44 | 41.64043 | -71.27233 | 1132 ft | 144 kts | 126° |
| 2026-04-24 19:44 | 41.63442 | -71.26146 | 1267 ft | 146 kts | 126° |
| 2026-04-24 19:44 | 41.62832 | -71.25050 | 1396 ft | 147 kts | 126° |
| 2026-04-24 19:45 | 41.62212 | -71.23945 | 1545 ft | 150 kts | 126° |
| 2026-04-24 19:45 | 41.61583 | -71.22834 | 1674 ft | 150 kts | 126° |
| 2026-04-24 19:45 | 41.60986 | -71.21695 | 1800 ft | 149 kts | 121° |
| 2026-04-24 19:45 | 41.60431 | -71.20517 | 1934 ft | 150 kts | 121° |
| 2026-04-24 19:46 | 41.59867 | -71.19342 | 2065 ft | 150 kts | 121° |
| 2026-04-24 19:46 | 41.59304 | -71.18170 | 2195 ft | 150 kts | 120° |
| 2026-04-24 19:46 | 41.58792 | -71.16957 | 2324 ft | 150 kts | 117° |
| 2026-04-24 19:46 | 41.58283 | -71.15744 | 2453 ft | 150 kts | 117° |
| 2026-04-24 19:47 | 41.57757 | -71.14515 | 2489 ft | 156 kts | 117° |
| 2026-04-24 19:47 | 41.57208 | -71.13242 | 2495 ft | 161 kts | 117° |
| 2026-04-24 19:47 | 41.56644 | -71.11932 | 2493 ft | 164 kts | 117° |
| 2026-04-24 19:47 | 41.56085 | -71.10602 | 2502 ft | 165 kts | 117° |
| 2026-04-24 19:48 | 41.55521 | -71.09261 | 2506 ft | 167 kts | 117° |
| 2026-04-24 19:48 | 41.54959 | -71.07922 | 2496 ft | 167 kts | 117° |
| 2026-04-24 19:48 | 41.53843 | -71.05214 | 2497 ft | 166 kts | 117° |
| 2026-04-24 19:49 | 41.52717 | -71.02504 | 2497 ft | 167 kts | 117° |
| 2026-04-24 19:49 | 41.51593 | -70.99803 | 2497 ft | 166 kts | 117° |
| 2026-04-24 19:50 | 41.49959 | -70.95709 | 2502 ft | 166 kts | 115° |
| 2026-04-24 19:50 | 41.49462 | -70.94321 | 2501 ft | 165 kts | 113° |
| 2026-04-24 19:51 | 41.48485 | -70.91551 | 2499 ft | 165 kts | 113° |
| 2026-04-24 19:51 | 41.48011 | -70.90179 | 2513 ft | 165 kts | 113° |
| 2026-04-24 19:52 | 41.47038 | -70.87405 | 2523 ft | 164 kts | 112° |
| 2026-04-24 19:52 | 41.46531 | -70.86044 | 2524 ft | 163 kts | 112° |
| 2026-04-24 19:52 | 41.46028 | -70.84694 | 2525 ft | 162 kts | 112° |
| 2026-04-24 19:52 | 41.45520 | -70.83359 | 2526 ft | 161 kts | 112° |
| 2026-04-24 19:53 | 41.45015 | -70.82016 | 2523 ft | 163 kts | 112° |
| 2026-04-24 19:53 | 41.44537 | -70.80641 | 2523 ft | 165 kts | 109° |
| 2026-04-24 19:53 | 41.43642 | -70.77863 | 2517 ft | 162 kts | 109° |
| 2026-04-24 19:54 | 41.43178 | -70.76500 | 2515 ft | 162 kts | 112° |
| 2026-04-24 19:54 | 41.42674 | -70.75160 | 2516 ft | 162 kts | 115° |
| 2026-04-24 19:54 | 41.42049 | -70.73906 | 2515 ft | 163 kts | 120° |
| 2026-04-24 19:54 | 41.41404 | -70.72669 | 2515 ft | 162 kts | 120° |
| 2026-04-24 19:55 | 41.40982 | -70.71848 | 2512 ft | 162 kts | 120° |
| 2026-04-24 19:55 | 41.40145 | -70.70171 | 2516 ft | 162 kts | 119° |
| 2026-04-24 19:55 | 41.39531 | -70.68938 | 2518 ft | 162 kts | 119° |
| 2026-04-24 19:55 | 41.38898 | -70.67695 | 2522 ft | 162 kts | 119° |
| 2026-04-24 19:56 | 41.38277 | -70.66427 | 2504 ft | 164 kts | 116° |
| 2026-04-24 19:56 | 41.37799 | -70.65064 | 2468 ft | 162 kts | 104° |
| 2026-04-24 19:56 | 41.37614 | -70.63591 | 2313 ft | 161 kts | 88° |
| 2026-04-24 19:56 | 41.37761 | -70.62126 | 1957 ft | 160 kts | 72° |
| 2026-04-24 19:57 | 41.38246 | -70.60826 | 1652 ft | 156 kts | 52° |
| 2026-04-24 19:57 | 41.39041 | -70.59921 | 1492 ft | 150 kts | 30° |
| 2026-04-24 19:57 | 41.39990 | -70.59710 | 1505 ft | 134 kts | 352° |
| 2026-04-24 19:57 | 41.40804 | -70.60341 | 1121 ft | 138 kts | 317° |
| 2026-04-24 19:58 | 41.41291 | -70.61379 | 918 ft | 126 kts | 290° |
| 2026-04-24 19:58 | 41.41308 | -70.62505 | 699 ft | 122 kts | 250° |
| 2026-04-24 19:58 | 41.40791 | -70.63088 | 561 ft | 86 kts | 163° |
| 2026-04-24 19:58 | 41.40295 | -70.62731 | 318 ft | 80 kts | 126° |
| 2026-04-24 19:59 | 41.39921 | -70.62211 | 163 ft | 75 kts | 120° |
| 2026-04-24 19:59 | 41.39600 | -70.61710 | 69 ft | 65 kts | 125° |
| 2026-04-24 19:59 | 41.39375 | -70.61357 | 71 ft | 35 kts | 131° |
| 2026-04-24 19:59 | 41.39259 | -70.61174 | 71 ft | 20 kts | 131° |
| 2026-04-24 20:00 | 41.39168 | -70.61178 | 65 ft | 15 kts | 221° |
| 2026-04-24 20:00 | 41.39082 | -70.61279 | 66 ft | 15 kts | 218° |
| 2026-04-24 20:00 | 41.39008 | -70.61342 | 70 ft | 11 kts | 186° |
| 2026-04-24 20:00 | 41.38992 | -70.61296 | 70 ft | 6 kts | 53° |
| 2026-04-24 20:01 | 41.39000 | -70.61266 | 67 ft | 3 kts | 129° |
| 2026-04-24 20:01 | 41.38987 | -70.61250 | 70 ft | 0 kts | 130° |